Time;durP1;ratioP1;P1;durP2;ratioP2;P2;SDS_P1;SDS_P2;PMS_P1;PMS_P2;Temp;Humidity;BMP_temperature;BMP_pressure;BME280_temperature;BME280_humidity;BME280_pressure;Samples;Min_cycle;Max_cycle;Signal;HPM_P1;HPM_P2
2024/01/13 00:02:07;;;;;;;20.58;8.10;;;;;;;-5.08;100.00;98399.47;5044670;28;20156;-62
2024/01/13 00:04:33;;;;;;;21.90;8.70;;;;;;;-5.01;100.00;98394.50;5035376;28;20048;-63
2024/01/13 00:07:00;;;;;;;22.05;9.05;;;;;;;-4.96;100.00;98392.31;5044809;28;20056;-62
2024/01/13 00:09:26;;;;;;;22.83;8.32;;;;;;;-5.09;100.00;98387.19;5025827;28;20051;-63
2024/01/13 00:11:53;;;;;;;15.40;6.60;;;;;;;-5.16;100.00;98386.88;5034686;28;20512;-62
2024/01/13 00:14:20;;;;;;;17.63;7.88;;;;;;;-5.19;100.00;98376.56;5045656;28;20029;-63
2024/01/13 00:16:46;;;;;;;18.70;7.28;;;;;;;-5.19;100.00;98375.72;5033106;28;20041;-63
2024/01/13 00:19:13;;;;;;;16.63;7.30;;;;;;;-5.18;100.00;98372.13;5049956;28;20044;-63
2024/01/13 00:21:39;;;;;;;14.95;7.20;;;;;;;-5.30;100.00;98373.97;5041463;28;20170;-62
2024/01/13 00:24:06;;;;;;;17.48;6.55;;;;;;;-5.26;100.00;98380.69;5031820;28;20044;-63
2024/01/13 00:26:33;;;;;;;16.58;7.68;;;;;;;-5.11;100.00;98386.50;5039300;28;20064;-62
2024/01/13 00:28:59;;;;;;;19.58;6.88;;;;;;;-5.22;100.00;98371.53;5052036;28;20053;-61
2024/01/13 00:31:26;;;;;;;16.33;6.80;;;;;;;-5.35;100.00;98369.06;5046551;28;20036;-62
2024/01/13 00:33:52;;;;;;;15.75;6.00;;;;;;;-5.40;100.00;98364.16;5034074;28;21699;-62
2024/01/13 00:36:20;;;;;;;13.57;5.70;;;;;;;-5.30;100.00;98363.41;5030221;28;20041;-63
2024/01/13 00:38:46;;;;;;;13.07;4.65;;;;;;;-5.20;100.00;98364.31;5035416;28;20041;-63
2024/01/13 00:41:13;;;;;;;15.75;5.60;;;;;;;-5.19;100.00;98357.25;5045358;28;20584;-62
2024/01/13 00:43:39;;;;;;;11.35;5.88;;;;;;;-5.24;100.00;98352.31;5036261;28;20615;-63
2024/01/13 00:46:06;;;;;;;15.75;5.88;;;;;;;-5.28;100.00;98351.75;5041448;28;20500;-63
2024/01/13 00:48:35;;;;;;;13.55;5.90;;;;;;;-5.28;100.00;98343.84;5041072;28;20797;-62
2024/01/13 00:51:11;;;;;;;16.75;6.15;;;;;;;-5.36;100.00;98344.47;5025602;28;20049;-62
2024/01/13 00:53:40;;;;;;;18.10;7.25;;;;;;;-5.26;100.00;98341.06;5029943;28;20583;-63
2024/01/13 00:56:07;;;;;;;17.33;6.90;;;;;;;-5.18;100.00;98343.91;5040104;28;20079;-62
2024/01/13 00:58:36;;;;;;;19.42;7.57;;;;;;;-5.19;100.00;98339.59;5029868;28;20033;-63
2024/01/13 01:01:13;;;;;;;15.52;8.18;;;;;;;-5.10;100.00;98341.47;5042735;28;20601;-61
2024/01/13 01:03:44;;;;;;;21.23;7.88;;;;;;;-5.09;100.00;98340.50;5039300;28;20040;-62
2024/01/13 01:06:11;;;;;;;22.35;7.95;;;;;;;-5.17;100.00;98331.56;5031596;28;20063;-63
2024/01/13 01:08:38;;;;;;;20.45;8.13;;;;;;;-5.06;100.00;98338.59;5033010;28;20033;-63
2024/01/13 01:11:10;;;;;;;22.75;8.88;;;;;;;-4.97;100.00;98327.25;5045189;28;20037;-62
2024/01/13 01:13:38;;;;;;;20.45;7.10;;;;;;;-4.96;100.00;98326.28;5048757;28;20119;-63
2024/01/13 01:16:05;;;;;;;22.23;7.45;;;;;;;-5.04;100.00;98334.00;5035294;28;20452;-63
2024/01/13 01:18:32;;;;;;;23.02;9.65;;;;;;;-5.10;100.00;98330.06;5038438;28;20047;-62
2024/01/13 01:21:11;;;;;;;18.25;7.45;;;;;;;-5.16;100.00;98335.88;5047326;28;20044;-64
2024/01/13 01:23:39;;;;;;;20.77;8.10;;;;;;;-5.17;100.00;98342.13;5042084;28;20029;-63
2024/01/13 01:26:06;;;;;;;17.05;8.00;;;;;;;-5.20;100.00;98335.28;5027793;28;20533;-62
2024/01/13 01:28:32;;;;;;;20.00;7.65;;;;;;;-5.20;100.00;98326.53;5046324;28;20064;-63
2024/01/13 01:31:06;;;;;;;20.75;6.38;;;;;;;-5.31;100.00;98330.06;5035624;28;20052;-63
2024/01/13 01:33:34;;;;;;;23.75;9.35;;;;;;;-5.20;100.00;98334.44;5039830;28;20113;-61
2024/01/13 01:36:01;;;;;;;20.48;8.27;;;;;;;-5.30;100.00;98334.38;5043511;28;20499;-63
2024/01/13 01:38:28;;;;;;;26.00;8.73;;;;;;;-5.20;100.00;98332.63;5039591;28;20083;-63
2024/01/13 01:41:09;;;;;;;25.73;9.43;;;;;;;-5.02;100.00;98327.63;5044450;28;20052;-63
2024/01/13 01:43:36;;;;;;;23.42;9.10;;;;;;;-5.14;100.00;98320.72;5047082;28;20037;-62
2024/01/13 01:46:04;;;;;;;22.55;8.82;;;;;;;-5.11;100.00;98307.28;5037692;28;20408;-61
2024/01/13 01:48:37;;;;;;;17.67;7.45;;;;;;;-5.14;100.00;98313.66;5036711;28;20040;-63
2024/01/13 01:51:10;;;;;;;23.38;9.38;;;;;;;-5.03;100.00;98303.97;5039491;28;20047;-63
2024/01/13 01:53:37;;;;;;;26.60;9.18;;;;;;;-5.06;100.00;98301.63;5052402;28;20102;-62
2024/01/13 01:56:27;;;;;;;23.08;8.60;;;;;;;-5.07;100.00;98298.13;5037509;28;20067;-63
2024/01/13 01:58:55;;;;;;;20.90;7.55;;;;;;;-5.04;100.00;98289.09;5041685;28;20040;-62
2024/01/13 02:01:22;;;;;;;19.92;8.73;;;;;;;-4.99;100.00;98293.03;5033550;28;20037;-63
2024/01/13 02:03:51;;;;;;;18.83;7.88;;;;;;;-5.05;100.00;98288.25;5043631;28;20051;-62
2024/01/13 02:06:17;;;;;;;17.70;8.27;;;;;;;-5.18;100.00;98291.09;5030802;28;20045;-63
2024/01/13 02:08:46;;;;;;;17.95;8.75;;;;;;;-5.22;100.00;98295.81;5039140;28;20045;-63
2024/01/13 02:11:13;;;;;;;20.15;7.85;;;;;;;-5.20;100.00;98294.84;5047046;28;20041;-62
2024/01/13 02:13:44;;;;;;;21.92;8.73;;;;;;;-5.23;100.00;98286.19;5043479;28;20029;-62
2024/01/13 02:16:11;;;;;;;25.95;10.77;;;;;;;-5.35;100.00;98285.44;5032802;28;20045;-62
2024/01/13 02:18:38;;;;;;;24.65;9.18;;;;;;;-5.29;100.00;98283.22;5029684;28;20046;-62
2024/01/13 02:21:09;;;;;;;22.85;9.07;;;;;;;-5.31;100.00;98279.91;5041156;28;20583;-62
2024/01/13 02:23:37;;;;;;;24.73;9.60;;;;;;;-5.30;100.00;98292.13;5043377;28;20037;-62
2024/01/13 02:26:05;;;;;;;31.13;10.23;;;;;;;-5.28;100.00;98291.03;5037840;28;20057;-62
2024/01/13 02:28:33;;;;;;;23.50;8.45;;;;;;;-5.23;100.00;98293.28;5028584;28;20075;-62
2024/01/13 02:31:14;;;;;;;25.67;9.90;;;;;;;-5.23;100.00;98288.00;5042293;28;20131;-62
2024/01/13 02:33:41;;;;;;;27.83;9.82;;;;;;;-5.31;100.00;98274.63;5029061;28;20033;-62
2024/01/13 02:36:08;;;;;;;26.00;9.82;;;;;;;-5.40;100.00;98271.78;5030173;28;20415;-63
2024/01/13 02:38:35;;;;;;;25.92;10.23;;;;;;;-5.37;100.00;98274.16;5045939;28;20810;-62
2024/01/13 02:41:04;;;;;;;26.45;10.43;;;;;;;-5.37;100.00;98268.88;5041580;28;20041;-62
2024/01/13 02:43:33;;;;;;;27.83;9.88;;;;;;;-5.46;100.00;98271.44;5028217;28;20052;-62
2024/01/13 02:45:59;;;;;;;22.60;10.27;;;;;;;-5.62;100.00;98265.63;5026701;28;20138;-63
2024/01/13 02:48:30;;;;;;;26.60;10.32;;;;;;;-5.57;100.00;98265.25;5048384;28;20074;-63
2024/01/13 02:51:06;;;;;;;26.65;9.15;;;;;;;-5.52;100.00;98264.88;5039163;28;20049;-63
2024/01/13 02:53:34;;;;;;;28.40;10.32;;;;;;;-5.45;100.00;98271.34;5036036;28;20453;-62
2024/01/13 02:56:00;;;;;;;27.88;10.63;;;;;;;-5.47;100.00;98260.03;5029352;28;20575;-63
2024/01/13 02:58:27;;;;;;;24.95;10.52;;;;;;;-5.38;100.00;98246.06;5031690;28;20044;-62
2024/01/13 03:01:08;;;;;;;26.25;10.82;;;;;;;-5.41;100.00;98238.44;5038713;28;20468;-63
2024/01/13 03:03:34;;;;;;;33.45;12.02;;;;;;;-5.52;100.00;98239.34;5040486;28;20064;-63
2024/01/13 03:06:04;;;;;;;27.02;10.40;;;;;;;-5.49;100.00;98243.50;5040917;28;20041;-63
2024/01/13 03:08:31;;;;;;;29.45;11.23;;;;;;;-5.41;100.00;98229.66;5028175;28;20125;-62
2024/01/13 03:11:08;;;;;;;29.58;10.82;;;;;;;-5.43;100.00;98228.94;5036784;28;20049;-63
2024/01/13 03:13:35;;;;;;;29.73;12.18;;;;;;;-5.42;100.00;98230.63;5040083;28;20036;-62
2024/01/13 03:16:02;;;;;;;30.73;12.48;;;;;;;-5.47;100.00;98220.47;5038341;28;20059;-63
2024/01/13 03:18:29;;;;;;;32.70;13.75;;;;;;;-5.53;100.00;98218.34;5043058;28;20545;-63
2024/01/13 03:21:06;;;;;;;37.22;13.93;;;;;;;-5.40;100.00;98226.91;5036022;28;20037;-63
2024/01/13 03:23:33;;;;;;;32.05;13.70;;;;;;;-5.38;100.00;98229.41;5042397;28;20060;-63
2024/01/13 03:26:00;;;;;;;33.03;14.13;;;;;;;-5.38;100.00;98227.59;5040203;28;20045;-63
2024/01/13 03:28:27;;;;;;;38.45;14.30;;;;;;;-5.20;100.00;98237.56;5052708;28;20487;-63
2024/01/13 03:31:07;;;;;;;37.33;15.60;;;;;;;-5.16;100.00;98233.69;5033542;28;20053;-63
2024/01/13 03:33:34;;;;;;;32.17;13.70;;;;;;;-5.25;100.00;98232.69;5044848;28;20036;-63
2024/01/13 03:36:00;;;;;;;32.65;13.90;;;;;;;-5.37;100.00;98229.28;5032981;28;20040;-63
2024/01/13 03:38:27;;;;;;;30.58;12.77;;;;;;;-5.38;100.00;98224.94;5040015;28;20041;-62
2024/01/13 03:41:07;;;;;;;28.13;12.30;;;;;;;-5.48;100.00;98224.88;5040601;28;20059;-63
2024/01/13 03:43:33;;;;;;;26.75;11.20;;;;;;;-5.49;100.00;98228.50;5036451;28;20037;-62
2024/01/13 03:46:00;;;;;;;23.20;10.95;;;;;;;-5.50;100.00;98224.19;5033633;28;20665;-62
2024/01/13 03:48:27;;;;;;;31.33;12.35;;;;;;;-5.58;100.00;98218.72;5032201;28;20056;-63
2024/01/13 03:50:54;;;;;;;28.35;10.65;;;;;;;-5.49;100.00;98217.13;5032692;28;20492;-62
2024/01/13 03:53:20;;;;;;;30.67;11.52;;;;;;;-5.49;100.00;98220.56;5042463;28;20040;-62
2024/01/13 03:55:47;;;;;;;27.17;10.65;;;;;;;-5.52;100.00;98212.09;5042393;28;20048;-62
2024/01/13 03:58:14;;;;;;;27.77;10.40;;;;;;;-5.58;100.00;98204.66;5036686;28;20049;-62
2024/01/13 04:00:41;;;;;;;29.02;10.98;;;;;;;-5.54;100.00;98196.38;5034194;28;20046;-62
2024/01/13 04:03:07;;;;;;;27.95;11.57;;;;;;;-5.53;100.00;98199.88;5027033;28;20053;-61
2024/01/13 04:05:34;;;;;;;33.17;14.15;;;;;;;-5.62;100.00;98191.75;5026249;28;20120;-61
2024/01/13 04:08:01;;;;;;;28.35;12.73;;;;;;;-5.71;100.00;98189.88;5041539;28;20040;-63
2024/01/13 04:10:27;;;;;;;34.60;12.20;;;;;;;-5.73;100.00;98183.88;5039087;28;20405;-61
2024/01/13 04:12:56;;;;;;;26.77;11.90;;;;;;;-5.79;100.00;98187.88;5036889;28;20041;-61
2024/01/13 04:15:23;;;;;;;29.30;12.18;;;;;;;-5.83;100.00;98183.00;5045063;28;20080;-62
2024/01/13 04:17:49;;;;;;;27.10;12.00;;;;;;;-5.79;100.00;98182.59;5035447;28;20045;-63
2024/01/13 04:20:16;;;;;;;28.30;11.52;;;;;;;-5.67;100.00;98182.53;5043184;28;20181;-63
2024/01/13 04:22:43;;;;;;;35.08;12.48;;;;;;;-5.62;100.00;98178.56;5038016;28;20120;-62
2024/01/13 04:25:09;;;;;;;30.95;12.45;;;;;;;-5.49;100.00;98178.34;5033985;28;20041;-63
2024/01/13 04:27:36;;;;;;;29.77;13.73;;;;;;;-5.50;100.00;98168.75;5032660;28;20112;-61
2024/01/13 04:30:03;;;;;;;26.10;12.20;;;;;;;-5.45;100.00;98170.19;5042595;28;20622;-62
2024/01/13 04:32:29;;;;;;;28.92;10.88;;;;;;;-5.44;100.00;98171.84;5039621;28;20051;-63
2024/01/13 04:34:56;;;;;;;32.25;12.05;;;;;;;-5.50;100.00;98170.56;5043111;28;20103;-62
2024/01/13 04:37:23;;;;;;;32.10;12.45;;;;;;;-5.48;100.00;98177.38;5030466;28;20032;-62
2024/01/13 04:39:49;;;;;;;29.90;13.63;;;;;;;-5.62;100.00;98173.28;5033718;28;20041;-62
2024/01/13 04:42:16;;;;;;;28.70;11.75;;;;;;;-5.62;100.00;98169.78;5047742;28;20102;-62
2024/01/13 04:44:43;;;;;;;32.63;13.82;;;;;;;-5.58;100.00;98167.72;5042722;28;20041;-62
2024/01/13 04:47:10;;;;;;;29.80;10.75;;;;;;;-5.59;100.00;98169.53;5036881;28;20045;-63
2024/01/13 04:49:37;;;;;;;28.55;11.98;;;;;;;-5.64;100.00;98180.47;5047760;28;20075;-62
2024/01/13 04:52:03;;;;;;;29.88;12.40;;;;;;;-5.75;100.00;98183.19;5034951;28;20064;-62
2024/01/13 04:54:30;;;;;;;28.73;11.35;;;;;;;-5.77;100.00;98171.91;5038762;28;20419;-62
2024/01/13 04:56:56;;;;;;;28.27;11.68;;;;;;;-5.70;100.00;98172.25;5040942;28;20605;-61
2024/01/13 04:59:23;;;;;;;31.25;12.60;;;;;;;-5.72;100.00;98171.53;5040108;28;20203;-62
2024/01/13 05:01:50;;;;;;;33.60;12.00;;;;;;;-5.72;100.00;98174.19;5042020;28;20161;-63
2024/01/13 05:04:16;;;;;;;28.45;11.02;;;;;;;-5.77;100.00;98154.28;5045464;28;20041;-63
2024/01/13 05:06:43;;;;;;;27.70;11.38;;;;;;;-5.69;100.00;98153.66;5036048;28;20039;-63
2024/01/13 05:09:10;;;;;;;23.20;9.90;;;;;;;-5.59;100.00;98163.41;5039271;28;20041;-62
2024/01/13 05:11:37;;;;;;;29.67;11.95;;;;;;;-5.62;100.00;98162.72;5048359;28;20037;-61
2024/01/13 05:14:03;;;;;;;30.38;10.80;;;;;;;-5.62;100.00;98165.38;5044543;28;20347;-62
2024/01/13 05:16:30;;;;;;;25.52;9.70;;;;;;;-5.63;100.00;98170.78;5041447;28;20124;-63
2024/01/13 05:18:57;;;;;;;24.23;10.00;;;;;;;-5.71;100.00;98168.78;5032305;28;20053;-62
2024/01/13 05:21:23;;;;;;;26.65;10.38;;;;;;;-5.69;100.00;98174.75;5038897;28;20041;-62
2024/01/13 05:23:50;;;;;;;20.27;9.77;;;;;;;-5.66;100.00;98163.09;5036854;28;20451;-62
2024/01/13 05:26:16;;;;;;;25.80;10.70;;;;;;;-5.75;100.00;98164.72;5038338;28;20132;-63
2024/01/13 05:28:43;;;;;;;25.00;10.40;;;;;;;-5.69;100.00;98166.84;5042342;28;20032;-62
2024/01/13 05:31:10;;;;;;;20.75;9.18;;;;;;;-5.77;100.00;98164.00;5026366;28;20068;-62
2024/01/13 05:33:36;;;;;;;22.60;10.18;;;;;;;-5.78;100.00;98165.78;5029536;28;20544;-62
2024/01/13 05:36:03;;;;;;;27.48;9.75;;;;;;;-5.69;100.00;98158.91;5031716;28;20496;-62
2024/01/13 05:38:30;;;;;;;21.77;9.40;;;;;;;-5.61;100.00;98159.13;5031996;28;20675;-62
2024/01/13 05:40:56;;;;;;;26.58;10.82;;;;;;;-5.58;100.00;98160.66;5050423;28;20462;-62
2024/01/13 05:43:23;;;;;;;26.23;9.63;;;;;;;-5.62;100.00;98156.59;5035930;28;20781;-63
2024/01/13 05:45:49;;;;;;;28.65;10.77;;;;;;;-5.69;100.00;98155.44;5041844;28;20535;-62
2024/01/13 05:48:16;;;;;;;27.60;10.18;;;;;;;-5.65;100.00;98160.34;5035178;28;20509;-62
2024/01/13 05:50:43;;;;;;;20.70;9.75;;;;;;;-5.65;100.00;98146.28;5037232;28;20051;-63
2024/01/13 05:53:09;;;;;;;24.75;9.90;;;;;;;-5.61;100.00;98140.66;5043035;28;20120;-62
2024/01/13 05:55:36;;;;;;;23.15;9.98;;;;;;;-5.54;100.00;98140.13;5039028;28;20056;-61
2024/01/13 05:58:03;;;;;;;26.10;10.70;;;;;;;-5.52;100.00;98146.13;5035823;28;20045;-63
2024/01/13 06:00:30;;;;;;;21.45;8.50;;;;;;;-5.59;100.00;98142.31;5038939;28;20041;-62
2024/01/13 06:02:57;;;;;;;20.77;7.53;;;;;;;-5.52;100.00;98140.84;5045962;28;20045;-62
2024/01/13 06:05:24;;;;;;;24.35;9.27;;;;;;;-5.48;100.00;98137.78;5040838;28;20723;-63
2024/01/13 06:07:51;;;;;;;19.50;8.93;;;;;;;-5.40;100.00;98141.59;5037129;28;20037;-62
2024/01/13 06:10:17;;;;;;;23.88;8.80;;;;;;;-5.45;100.00;98139.34;5048877;28;20037;-62
2024/01/13 06:12:47;;;;;;;21.08;8.25;;;;;;;-5.50;100.00;98141.53;5046592;28;20144;-61
2024/01/13 06:15:14;;;;;;;21.63;7.93;;;;;;;-5.45;100.00;98131.44;5034583;28;20037;-62
2024/01/13 06:17:41;;;;;;;18.45;7.50;;;;;;;-5.51;100.00;98130.16;5030267;28;20064;-61
2024/01/13 06:20:10;;;;;;;19.45;7.25;;;;;;;-5.54;100.00;98133.03;5034449;28;20134;-63
2024/01/13 06:22:37;;;;;;;22.65;8.02;;;;;;;-5.55;100.00;98135.81;5036394;28;20041;-62
2024/01/13 06:25:04;;;;;;;16.60;7.25;;;;;;;-5.52;100.00;98131.13;5032836;28;20043;-62
2024/01/13 06:27:31;;;;;;;19.63;7.68;;;;;;;-5.50;100.00;98138.88;5037332;28;20037;-62
2024/01/13 06:29:57;;;;;;;20.70;8.25;;;;;;;-5.54;100.00;98125.13;5045828;28;20040;-62
2024/01/13 06:32:24;;;;;;;18.63;7.40;;;;;;;-5.57;100.00;98120.09;5046086;28;20500;-62
2024/01/13 06:34:51;;;;;;;18.98;7.55;;;;;;;-5.47;100.00;98133.34;5040597;28;20044;-62
2024/01/13 06:37:17;;;;;;;18.00;6.78;;;;;;;-5.41;100.00;98137.28;5038669;28;20037;-62
2024/01/13 06:39:44;;;;;;;22.77;7.55;;;;;;;-5.40;100.00;98126.59;5032765;28;20041;-48
2024/01/13 06:42:10;;;;;;;19.60;7.88;;;;;;;-5.36;100.00;98128.00;5044226;28;20528;-48
2024/01/13 06:44:37;;;;;;;16.48;7.07;;;;;;;-5.45;100.00;98123.53;5049993;28;20034;-46
2024/01/13 06:47:10;;;;;;;13.80;6.63;;;;;;;-5.46;100.00;98123.66;5034974;28;20045;-43
2024/01/13 06:49:36;;;;;;;18.23;7.97;;;;;;;-5.40;100.00;98126.59;5037923;28;20575;-41
2024/01/13 06:52:04;;;;;;;15.63;8.10;;;;;;;-5.52;100.00;98128.50;5033875;28;20041;-42
2024/01/13 06:54:30;;;;;;;20.60;8.48;;;;;;;-5.48;100.00;98123.78;5040229;28;20443;-41
2024/01/13 06:56:57;;;;;;;22.23;8.82;;;;;;;-5.50;100.00;98121.25;5035648;28;20663;-44
2024/01/13 06:59:23;;;;;;;28.35;10.52;;;;;;;-5.53;100.00;98116.22;5038437;28;20048;-61
2024/01/13 07:01:50;;;;;;;19.75;7.40;;;;;;;-5.43;100.00;98116.28;5040521;28;20053;-61
2024/01/13 07:04:17;;;;;;;20.58;9.68;;;;;;;-5.46;100.00;98111.25;5038801;28;20049;-61
2024/01/13 07:06:44;;;;;;;21.25;9.35;;;;;;;-5.36;100.00;98106.88;5038670;28;20045;-61
2024/01/13 07:09:11;;;;;;;23.38;9.80;;;;;;;-5.26;100.00;98111.38;5042671;28;20109;-61
2024/01/13 07:11:37;;;;;;;25.73;8.65;;;;;;;-5.32;100.00;98107.44;5040170;28;20119;-61
2024/01/13 07:14:05;;;;;;;23.55;10.00;;;;;;;-5.37;100.00;98094.66;5040674;28;20058;-61
2024/01/13 07:16:32;;;;;;;24.50;11.23;;;;;;;-5.30;100.00;98081.78;5045990;28;20140;-61
2024/01/13 07:18:59;;;;;;;22.85;9.98;;;;;;;-5.23;100.00;98087.34;5039030;28;20550;-61
2024/01/13 07:21:26;;;;;;;21.02;8.60;;;;;;;-5.18;100.00;98085.13;5038580;28;20124;-61
2024/01/13 07:23:53;;;;;;;19.70;8.38;;;;;;;-5.06;100.00;98093.78;5040324;28;20055;-61
2024/01/13 07:26:20;;;;;;;21.63;9.50;;;;;;;-5.12;100.00;98087.22;5033271;28;20044;-61
2024/01/13 07:28:46;;;;;;;21.67;9.68;;;;;;;-5.10;100.00;98090.59;5042184;28;20111;-61
2024/01/13 07:31:13;;;;;;;22.85;9.07;;;;;;;-5.16;100.00;98080.53;5029143;28;20622;-61
2024/01/13 07:33:40;;;;;;;20.20;9.57;;;;;;;-5.10;100.00;98077.38;5037744;28;20048;-61
2024/01/13 07:36:07;;;;;;;22.35;9.05;;;;;;;-5.04;100.00;98078.66;5036419;28;20742;-62
2024/01/13 07:38:34;;;;;;;22.45;9.02;;;;;;;-5.07;100.00;98081.56;5036791;28;20210;-62
2024/01/13 07:41:01;;;;;;;24.33;10.07;;;;;;;-5.00;100.00;98092.41;5043343;28;20527;-62
2024/01/13 07:43:27;;;;;;;27.70;11.07;;;;;;;-5.04;100.00;98093.66;5041399;28;20048;-61
2024/01/13 07:45:54;;;;;;;28.17;10.68;;;;;;;-5.00;100.00;98089.78;5030660;28;20143;-62
2024/01/13 07:48:20;;;;;;;25.75;11.15;;;;;;;-5.11;100.00;98090.72;5035076;28;20146;-62
2024/01/13 07:50:47;;;;;;;23.40;10.02;;;;;;;-5.09;100.00;98091.41;5035791;28;20110;-62
2024/01/13 07:53:14;;;;;;;25.08;10.73;;;;;;;-5.13;100.00;98087.34;5040176;28;20045;-62
2024/01/13 07:55:40;;;;;;;25.42;10.73;;;;;;;-5.07;100.00;98093.91;5045977;28;20134;-62
2024/01/13 07:58:07;;;;;;;30.45;12.32;;;;;;;-5.06;100.00;98087.69;5033925;28;20068;-61
2024/01/13 08:00:34;;;;;;;30.73;11.98;;;;;;;-5.12;100.00;98095.16;5038876;28;20098;-61
2024/01/13 08:03:00;;;;;;;27.55;12.25;;;;;;;-5.02;100.00;98092.53;5034646;28;20041;-61
2024/01/13 08:05:27;;;;;;;31.45;12.32;;;;;;;-5.03;100.00;98090.88;5032606;28;20044;-61
2024/01/13 08:07:57;;;;;;;32.53;12.05;;;;;;;-5.01;100.00;98093.41;5038272;28;20051;-61
2024/01/13 08:10:24;;;;;;;36.65;13.10;;;;;;;-5.00;100.00;98089.78;5030470;28;20051;-61
2024/01/13 08:12:50;;;;;;;26.38;11.70;;;;;;;-4.99;100.00;98091.44;5033697;28;20525;-61
2024/01/13 08:15:17;;;;;;;28.05;11.73;;;;;;;-4.99;100.00;98087.00;5035440;28;20408;-61
2024/01/13 08:17:44;;;;;;;28.30;11.52;;;;;;;-4.92;100.00;98082.00;5029652;28;20044;-61
2024/01/13 08:20:13;;;;;;;25.02;10.73;;;;;;;-4.87;100.00;98084.25;5044447;28;20099;-61
2024/01/13 08:22:39;;;;;;;28.77;12.07;;;;;;;-4.80;100.00;98084.56;5047392;28;20120;-61
2024/01/13 08:25:07;;;;;;;23.60;9.68;;;;;;;-4.78;100.00;98083.44;5030979;28;20040;-61
2024/01/13 08:27:34;;;;;;;27.17;10.73;;;;;;;-4.72;100.00;98095.28;5030769;28;20069;-61
2024/01/13 08:30:00;;;;;;;32.88;11.90;;;;;;;-4.71;100.00;98100.41;5039836;28;20110;-62
2024/01/13 08:32:27;;;;;;;25.55;12.10;;;;;;;-4.65;100.00;98096.38;5050709;28;20044;-60
2024/01/13 08:34:54;;;;;;;25.92;10.55;;;;;;;-4.70;100.00;98098.59;5044160;28;20068;-62
2024/01/13 08:37:21;;;;;;;25.95;12.18;;;;;;;-4.75;100.00;98087.63;5028261;28;20049;-62
2024/01/13 08:39:47;;;;;;;24.83;11.77;;;;;;;-4.83;100.00;98086.47;5028667;28;20049;-61
2024/01/13 08:42:14;;;;;;;22.23;9.10;;;;;;;-4.77;100.00;98095.66;5033826;28;20037;-62
2024/01/13 08:44:40;;;;;;;26.45;10.13;;;;;;;-4.73;100.00;98098.88;5047879;28;20679;-61
2024/01/13 08:47:09;;;;;;;25.13;10.55;;;;;;;-4.56;100.00;98094.75;5042821;28;20052;-61
2024/01/13 08:49:36;;;;;;;19.92;9.93;;;;;;;-4.57;100.00;98087.78;5037588;28;20456;-62
2024/01/13 08:52:03;;;;;;;18.17;7.25;;;;;;;-4.48;100.00;98096.69;5036019;28;20106;-61
2024/01/13 08:54:30;;;;;;;15.85;6.45;;;;;;;-4.49;100.00;98095.84;5037202;28;20123;-61
2024/01/13 08:56:57;;;;;;;15.73;6.20;;;;;;;-4.45;100.00;98086.66;5037265;28;20446;-61
2024/01/13 08:59:24;;;;;;;17.02;8.02;;;;;;;-4.34;100.00;98092.81;5037487;28;20049;-62
2024/01/13 09:01:50;;;;;;;13.73;6.43;;;;;;;-4.33;100.00;98100.59;5037400;28;20040;-62
2024/01/13 09:04:18;;;;;;;16.45;7.07;;;;;;;-4.29;100.00;98100.31;5033495;28;20056;-61
2024/01/13 09:06:45;;;;;;;20.65;7.50;;;;;;;-4.23;100.00;98105.06;5039104;28;20052;-62
2024/01/13 09:09:12;;;;;;;13.55;5.75;;;;;;;-4.18;100.00;98105.47;5036786;28;20123;-61
2024/01/13 09:11:41;;;;;;;11.98;6.13;;;;;;;-4.36;100.00;98108.81;5038676;28;20041;-61
2024/01/13 09:14:11;;;;;;;;;;;;;;;-4.34;100.00;98106.03;5034868;28;20041;-61
2024/01/13 09:16:39;;;;;;;14.57;6.15;;;;;;;-4.36;100.00;98106.16;5046502;28;19920;-61
2024/01/13 09:19:08;;;;;;;15.85;7.47;;;;;;;-4.29;100.00;98109.06;5033078;28;20049;-61
2024/01/13 09:21:35;;;;;;;14.77;6.93;;;;;;;-4.31;100.00;98095.19;5028581;28;20045;-61
2024/01/13 09:24:09;;;;;;;19.92;10.38;;;;;;;-4.26;100.00;98098.22;5036262;28;20447;-63
2024/01/13 09:26:41;;;;;;;18.55;8.48;;;;;;;-4.25;100.00;98099.03;5039873;28;20407;-61
2024/01/13 09:29:08;;;;;;;18.75;9.40;;;;;;;-4.15;100.00;98091.13;5033073;28;20147;-61
2024/01/13 09:31:34;;;;;;;15.38;6.45;;;;;;;-4.19;100.00;98090.56;5032725;28;20136;-60
2024/01/13 09:34:07;;;;;;;19.20;8.43;;;;;;;-4.10;100.00;98091.53;5041914;28;20099;-60
2024/01/13 09:36:35;;;;;;;17.30;8.00;;;;;;;-4.01;100.00;98108.38;5046147;28;20029;-60
2024/01/13 09:39:02;;;;;;;16.50;8.65;;;;;;;-3.97;100.00;98100.03;5050473;28;20059;-61
2024/01/13 09:41:29;;;;;;;22.92;9.27;;;;;;;-3.89;100.00;98093.19;5037182;28;20107;-60
2024/01/13 09:44:10;;;;;;;20.80;11.23;;;;;;;-3.76;100.00;98100.84;5031567;28;20068;-61
2024/01/13 09:46:37;;;;;;;24.83;11.43;;;;;;;-3.78;100.00;98090.38;5037758;28;20042;-61
2024/01/13 09:49:09;;;;;;;21.40;10.32;;;;;;;-3.84;100.00;98091.78;5039015;28;20048;-61
2024/01/13 09:51:36;;;;;;;17.75;8.82;;;;;;;-3.83;100.00;98090.81;5034286;28;20049;-62
2024/01/13 09:54:22;;;;;;;18.25;8.88;;;;;;;-3.72;100.00;98081.88;5037076;28;20650;-62
2024/01/13 09:56:49;;;;;;;18.00;8.27;;;;;;;-3.68;100.00;98079.78;5040472;28;20045;-62
2024/01/13 09:59:16;;;;;;;24.73;11.70;;;;;;;-3.79;100.00;98076.31;5039481;28;20120;-62
2024/01/13 10:01:43;;;;;;;18.70;8.70;;;;;;;-3.96;100.00;98074.41;5048200;28;20053;-62
2024/01/13 10:04:10;;;;;;;19.80;8.68;;;;;;;-3.92;100.00;98066.03;5046036;28;20037;-62
2024/01/13 10:06:36;;;;;;;17.45;8.38;;;;;;;-4.00;100.00;98054.47;5047352;28;20805;-62
2024/01/13 10:09:04;;;;;;;19.42;10.13;;;;;;;-3.92;100.00;98050.16;5033806;28;20092;-62
2024/01/13 10:11:51;;;;;;;17.90;9.00;;;;;;;-3.77;100.00;98046.25;5044596;28;20040;-62
2024/01/13 10:14:18;;;;;;;18.05;9.30;;;;;;;-3.69;100.00;98051.66;5045983;28;20045;-62
2024/01/13 10:16:44;;;;;;;16.23;7.15;;;;;;;-3.65;100.00;98037.13;5050512;28;20182;-62
2024/01/13 10:19:11;;;;;;;15.15;6.40;;;;;;;-3.79;100.00;98035.78;5040667;28;20044;-61
2024/01/13 10:21:39;;;;;;;17.02;7.10;;;;;;;-3.90;100.00;98028.88;5044598;28;20048;-61
2024/01/13 10:24:06;;;;;;;12.98;6.90;;;;;;;-3.88;100.00;98031.38;5044244;28;20054;-59
2024/01/13 10:26:33;;;;;;;12.35;5.65;;;;;;;-3.77;100.00;98036.47;5041921;28;20040;-61
2024/01/13 10:29:00;;;;;;;12.20;5.63;;;;;;;-3.94;100.00;98054.75;5050260;28;20040;-60
2024/01/13 10:31:27;;;;;;;9.82;4.50;;;;;;;-3.93;100.00;98060.88;5036767;28;20072;-61
2024/01/13 10:34:09;;;;;;;13.02;5.95;;;;;;;-3.90;100.00;98060.63;5046325;28;20057;-61
2024/01/13 10:36:36;;;;;;;10.23;5.20;;;;;;;-3.86;100.00;98059.34;5050820;28;20076;-61
2024/01/13 10:39:03;;;;;;;12.50;5.38;;;;;;;-3.94;100.00;98053.94;5044506;28;20627;-60
2024/01/13 10:41:30;;;;;;;10.27;4.55;;;;;;;-4.03;100.00;98046.84;5042973;28;20053;-61
2024/01/13 10:44:03;;;;;;;10.70;5.63;;;;;;;-3.98;100.00;98031.38;5039267;28;20072;-61
2024/01/13 10:46:31;;;;;;;9.13;4.53;;;;;;;-3.84;100.00;98017.69;5039055;28;20451;-60
2024/01/13 10:49:04;;;;;;;9.98;4.95;;;;;;;-3.86;100.00;98017.00;5047378;28;20488;-61
2024/01/13 10:51:45;;;;;;;9.95;5.50;;;;;;;-3.80;100.00;98011.13;5029197;28;20451;-60
2024/01/13 10:54:13;;;;;;;8.43;4.15;;;;;;;-3.68;100.00;98008.31;5039506;28;20045;-61
2024/01/13 10:56:41;;;;;;;12.68;4.68;;;;;;;-3.64;100.00;98009.69;5040024;28;20033;-61
2024/01/13 10:59:08;;;;;;;9.35;5.03;;;;;;;-3.67;100.00;97996.75;5038868;28;20060;-61
2024/01/13 11:01:36;;;;;;;9.52;4.70;;;;;;;-3.74;100.00;97985.06;5048905;28;20041;-61
2024/01/13 11:04:04;;;;;;;32.20;11.60;;;;;;;-3.90;100.00;97975.09;5034785;28;20523;-61
2024/01/13 11:06:31;;;;;;;13.02;5.80;;;;;;;-3.78;100.00;97984.53;5031686;28;20048;-61
2024/01/13 11:09:01;;;;;;;16.45;8.38;;;;;;;-3.88;100.00;97991.69;5036249;28;20049;-60
2024/01/13 11:11:31;;;;;;;13.13;5.97;;;;;;;-4.06;100.00;97993.25;5053066;28;20047;-60
2024/01/13 11:14:14;;;;;;;14.77;7.00;;;;;;;-4.15;100.00;97983.53;5043658;28;20044;-60
2024/01/13 11:16:44;;;;;;;9.98;4.53;;;;;;;-4.00;100.00;97978.63;5037003;28;20784;-61
2024/01/13 11:19:11;;;;;;;10.77;5.30;;;;;;;-4.14;100.00;97979.91;5038578;28;20042;-60